sensor_id;sensor_type;location;lat;lon;timestamp;pressure;altitude;pressure_sealevel;temperature;humidity
65276;BME280;51875;49.994;14.052;2023-04-26T00:00:23;98153.72;;;3.28;100.00
65276;BME280;51875;49.994;14.052;2023-04-26T00:01:59;98154.59;;;3.32;100.00
65276;BME280;51875;49.994;14.052;2023-04-26T00:03:14;98159.72;;;3.46;100.00
65276;BME280;51875;49.994;14.052;2023-04-26T00:04:30;98160.63;;;3.32;100.00
65276;BME280;51875;49.994;14.052;2023-04-26T00:05:46;98165.78;;;3.40;100.00
65276;BME280;51875;49.994;14.052;2023-04-26T00:07:01;98168.31;;;3.51;100.00
65276;BME280;51875;49.994;14.052;2023-04-26T00:08:17;98164.06;;;3.44;100.00
65276;BME280;51875;49.994;14.052;2023-04-26T00:09:33;98161.44;;;3.50;100.00
65276;BME280;51875;49.994;14.052;2023-04-26T00:10:49;98164.88;;;3.53;100.00
65276;BME280;51875;49.994;14.052;2023-04-26T00:12:05;98168.25;;;3.68;99.86
65276;BME280;51875;49.994;14.052;2023-04-26T00:13:21;98174.25;;;3.76;99.00
65276;BME280;51875;49.994;14.052;2023-04-26T00:14:36;98173.44;;;3.68;99.33
65276;BME280;51875;49.994;14.052;2023-04-26T00:15:52;98174.31;;;3.64;98.78
65276;BME280;51875;49.994;14.052;2023-04-26T00:17:07;98170.88;;;3.65;99.00
65276;BME280;51875;49.994;14.052;2023-04-26T00:18:23;98177.75;;;3.64;98.58
65276;BME280;51875;49.994;14.052;2023-04-26T00:19:38;98181.28;;;3.52;98.85
65276;BME280;51875;49.994;14.052;2023-04-26T00:20:54;98177.81;;;3.50;98.93
65276;BME280;51875;49.994;14.052;2023-04-26T00:22:10;98171.75;;;3.55;98.99
65276;BME280;51875;49.994;14.052;2023-04-26T00:23:25;98167.50;;;3.39;99.91
65276;BME280;51875;49.994;14.052;2023-04-26T00:24:41;98171.81;;;3.41;100.00
65276;BME280;51875;49.994;14.052;2023-04-26T00:25:57;98163.25;;;3.21;100.00
65276;BME280;51875;49.994;14.052;2023-04-26T00:27:13;98166.69;;;3.17;100.00
65276;BME280;51875;49.994;14.052;2023-04-26T00:28:28;98166.69;;;3.27;99.98
65276;BME280;51875;49.994;14.052;2023-04-26T00:29:44;98166.69;;;3.23;100.00
65276;BME280;51875;49.994;14.052;2023-04-26T00:31:00;98167.56;;;3.18;100.00
65276;BME280;51875;49.994;14.052;2023-04-26T00:32:16;98169.31;;;3.16;98.87
65276;BME280;51875;49.994;14.052;2023-04-26T00:33:31;98169.31;;;3.09;99.82
65276;BME280;51875;49.994;14.052;2023-04-26T00:34:47;98177.06;;;3.09;99.33
65276;BME280;51875;49.994;14.052;2023-04-26T00:36:02;98173.63;;;3.10;99.28
65276;BME280;51875;49.994;14.052;2023-04-26T00:37:18;98178.81;;;3.07;100.00
65276;BME280;51875;49.994;14.052;2023-04-26T00:38:35;98174.50;;;2.97;100.00
65276;BME280;51875;49.994;14.052;2023-04-26T00:39:51;98176.22;;;3.03;100.00
65276;BME280;51875;49.994;14.052;2023-04-26T00:41:07;98180.56;;;2.87;100.00
65276;BME280;51875;49.994;14.052;2023-04-26T00:42:22;98183.19;;;2.66;100.00
65276;BME280;51875;49.994;14.052;2023-04-26T00:43:38;98187.47;;;2.50;100.00
65276;BME280;51875;49.994;14.052;2023-04-26T00:44:54;98183.13;;;2.24;100.00
65276;BME280;51875;49.994;14.052;2023-04-26T00:46:11;98184.03;;;2.40;100.00
65276;BME280;51875;49.994;14.052;2023-04-26T00:47:28;98181.44;;;2.25;100.00
65276;BME280;51875;49.994;14.052;2023-04-26T00:48:44;98183.13;;;2.21;100.00
65276;BME280;51875;49.994;14.052;2023-04-26T00:50:00;98189.19;;;2.39;100.00
65276;BME280;51875;49.994;14.052;2023-04-26T00:51:16;98189.19;;;2.56;100.00
65276;BME280;51875;49.994;14.052;2023-04-26T00:52:31;98192.63;;;2.61;100.00
65276;BME280;51875;49.994;14.052;2023-04-26T00:53:47;98193.50;;;2.94;100.00
65276;BME280;51875;49.994;14.052;2023-04-26T00:55:04;98196.06;;;2.88;100.00
65276;BME280;51875;49.994;14.052;2023-04-26T00:56:20;98186.59;;;2.89;100.00
65276;BME280;51875;49.994;14.052;2023-04-26T00:57:36;98184.00;;;2.86;100.00
65276;BME280;51875;49.994;14.052;2023-04-26T00:58:53;98190.91;;;2.79;100.00
65276;BME280;51875;49.994;14.052;2023-04-26T01:00:09;98190.03;;;2.81;100.00
65276;BME280;51875;49.994;14.052;2023-04-26T01:01:25;98192.59;;;2.92;100.00
65276;BME280;51875;49.994;14.052;2023-04-26T01:02:41;98191.75;;;2.98;100.00
65276;BME280;51875;49.994;14.052;2023-04-26T01:03:57;98193.47;;;2.99;100.00
65276;BME280;51875;49.994;14.052;2023-04-26T01:05:12;98196.06;;;2.85;100.00
65276;BME280;51875;49.994;14.052;2023-04-26T01:06:35;98191.78;;;2.84;100.00
65276;BME280;51875;49.994;14.052;2023-04-26T01:07:52;98190.91;;;2.87;100.00
65276;BME280;51875;49.994;14.052;2023-04-26T01:09:08;98188.34;;;2.87;100.00
65276;BME280;51875;49.994;14.052;2023-04-26T01:10:27;98192.63;;;2.78;100.00
65276;BME280;51875;49.994;14.052;2023-04-26T01:11:43;98190.91;;;2.87;100.00
65276;BME280;51875;49.994;14.052;2023-04-26T01:13:00;98189.19;;;2.92;100.00
65276;BME280;51875;49.994;14.052;2023-04-26T01:14:17;98187.47;;;2.75;100.00
65276;BME280;51875;49.994;14.052;2023-04-26T01:15:33;98189.19;;;2.56;100.00
65276;BME280;51875;49.994;14.052;2023-04-26T01:16:50;98198.66;;;2.65;100.00
65276;BME280;51875;49.994;14.052;2023-04-26T01:18:06;98203.84;;;2.52;100.00
65276;BME280;51875;49.994;14.052;2023-04-26T01:19:22;98198.69;;;2.70;100.00
65276;BME280;51875;49.994;14.052;2023-04-26T01:20:38;98196.94;;;2.48;100.00
65276;BME280;51875;49.994;14.052;2023-04-26T01:21:54;98198.66;;;2.38;100.00
65276;BME280;51875;49.994;14.052;2023-04-26T01:23:10;98196.94;;;2.48;100.00
65276;BME280;51875;49.994;14.052;2023-04-26T01:24:26;98196.06;;;2.51;100.00
65276;BME280;51875;49.994;14.052;2023-04-26T01:25:41;98199.53;;;2.67;100.00
65276;BME280;51875;49.994;14.052;2023-04-26T01:26:57;98192.63;;;2.36;100.00
65276;BME280;51875;49.994;14.052;2023-04-26T01:28:12;98192.63;;;2.44;100.00
65276;BME280;51875;49.994;14.052;2023-04-26T01:29:29;98192.63;;;2.58;100.00
65276;BME280;51875;49.994;14.052;2023-04-26T01:30:45;98186.59;;;2.78;100.00
65276;BME280;51875;49.994;14.052;2023-04-26T01:32:00;98191.78;;;2.72;100.00
65276;BME280;51875;49.994;14.052;2023-04-26T01:33:16;98188.31;;;2.77;100.00
65276;BME280;51875;49.994;14.052;2023-04-26T01:34:32;98190.06;;;2.71;100.00
65276;BME280;51875;49.994;14.052;2023-04-26T01:35:49;98199.53;;;2.67;100.00
65276;BME280;51875;49.994;14.052;2023-04-26T01:37:04;98197.78;;;2.69;100.00
65276;BME280;51875;49.994;14.052;2023-04-26T01:38:21;98197.81;;;2.55;100.00
65276;BME280;51875;49.994;14.052;2023-04-26T01:39:37;98196.09;;;2.31;100.00
65276;BME280;51875;49.994;14.052;2023-04-26T01:40:53;98188.34;;;2.46;100.00
65276;BME280;51875;49.994;14.052;2023-04-26T01:42:10;98197.81;;;2.32;100.00
65276;BME280;51875;49.994;14.052;2023-04-26T01:43:25;98201.25;;;2.38;100.00
65276;BME280;51875;49.994;14.052;2023-04-26T01:44:42;98199.53;;;2.53;100.00
65276;BME280;51875;49.994;14.052;2023-04-26T01:45:57;98202.97;;;2.55;100.00
65276;BME280;51875;49.994;14.052;2023-04-26T01:47:13;98202.13;;;2.67;100.00
65276;BME280;51875;49.994;14.052;2023-04-26T01:48:29;98197.81;;;2.53;100.00
65276;BME280;51875;49.994;14.052;2023-04-26T01:49:44;98202.97;;;2.50;100.00
65276;BME280;51875;49.994;14.052;2023-04-26T01:51:00;98190.03;;;2.38;100.00
65276;BME280;51875;49.994;14.052;2023-04-26T01:52:17;98204.72;;;2.53;100.00
65276;BME280;51875;49.994;14.052;2023-04-26T01:53:32;98199.50;;;2.58;100.00
65276;BME280;51875;49.994;14.052;2023-04-26T01:54:48;98203.84;;;2.57;100.00
65276;BME280;51875;49.994;14.052;2023-04-26T01:56:06;98197.81;;;2.60;100.00
65276;BME280;51875;49.994;14.052;2023-04-26T01:57:24;98198.69;;;2.62;100.00
65276;BME280;51875;49.994;14.052;2023-04-26T01:58:40;98201.25;;;2.52;100.00
65276;BME280;51875;49.994;14.052;2023-04-26T01:59:56;98200.38;;;2.27;100.00
65276;BME280;51875;49.994;14.052;2023-04-26T02:01:11;98197.81;;;2.53;100.00
65276;BME280;51875;49.994;14.052;2023-04-26T02:02:27;98202.09;;;2.58;100.00
65276;BME280;51875;49.994;14.052;2023-04-26T02:03:43;98203.84;;;2.59;100.00
65276;BME280;51875;49.994;14.052;2023-04-26T02:04:58;98199.53;;;2.45;100.00
65276;BME280;51875;49.994;14.052;2023-04-26T02:06:14;98204.69;;;2.50;100.00
65276;BME280;51875;49.994;14.052;2023-04-26T02:07:30;98202.09;;;2.39;100.00
65276;BME280;51875;49.994;14.052;2023-04-26T02:08:45;98202.94;;;2.33;100.00
65276;BME280;51875;49.994;14.052;2023-04-26T02:10:01;98205.53;;;2.24;100.00
65276;BME280;51875;49.994;14.052;2023-04-26T02:11:17;98202.94;;;2.15;100.00
65276;BME280;51875;49.994;14.052;2023-04-26T02:12:33;98197.78;;;2.24;100.00
65276;BME280;51875;49.994;14.052;2023-04-26T02:13:48;98202.91;;;2.13;100.00
65276;BME280;51875;49.994;14.052;2023-04-26T02:15:05;98205.50;;;2.16;100.00
65276;BME280;51875;49.994;14.052;2023-04-26T02:16:21;98202.03;;;1.98;100.00
65276;BME280;51875;49.994;14.052;2023-04-26T02:17:37;98199.44;;;2.03;100.00
65276;BME280;51875;49.994;14.052;2023-04-26T02:18:53;98201.19;;;2.07;100.00
65276;BME280;51875;49.994;14.052;2023-04-26T02:20:09;98202.06;;;2.19;100.00
65276;BME280;51875;49.994;14.052;2023-04-26T02:21:25;98206.38;;;2.23;100.00
65276;BME280;51875;49.994;14.052;2023-04-26T02:22:42;98203.81;;;2.18;100.00
65276;BME280;51875;49.994;14.052;2023-04-26T02:23:58;98209.81;;;2.13;100.00
65276;BME280;51875;49.994;14.052;2023-04-26T02:25:13;98205.50;;;2.16;100.00
65276;BME280;51875;49.994;14.052;2023-04-26T02:26:30;98206.41;;;2.26;100.00
65276;BME280;51875;49.994;14.052;2023-04-26T02:27:48;98214.09;;;2.07;100.00
65276;BME280;51875;49.994;14.052;2023-04-26T02:29:03;98217.56;;;2.13;100.00
65276;BME280;51875;49.994;14.052;2023-04-26T02:30:19;98215.00;;;2.31;100.00
65276;BME280;51875;49.994;14.052;2023-04-26T02:31:35;98216.72;;;2.18;100.00
65276;BME280;51875;49.994;14.052;2023-04-26T02:32:53;98214.97;;;2.08;100.00
65276;BME280;51875;49.994;14.052;2023-04-26T02:34:09;98215.75;;;1.83;100.00
65276;BME280;51875;49.994;14.052;2023-04-26T02:35:24;98216.66;;;2.07;100.00
65276;BME280;51875;49.994;14.052;2023-04-26T02:36:39;98220.13;;;2.03;100.00
65276;BME280;51875;49.994;14.052;2023-04-26T02:37:55;98214.94;;;1.98;100.00
65276;BME280;51875;49.994;14.052;2023-04-26T02:39:11;98218.41;;;2.08;100.00
65276;BME280;51875;49.994;14.052;2023-04-26T02:40:26;98216.59;;;1.76;100.00
65276;BME280;51875;49.994;14.052;2023-04-26T02:41:42;98226.06;;;1.85;100.00
65276;BME280;51875;49.994;14.052;2023-04-26T02:42:57;98213.16;;;1.85;100.00
65276;BME280;51875;49.994;14.052;2023-04-26T02:44:13;98213.22;;;2.01;100.00
65276;BME280;51875;49.994;14.052;2023-04-26T02:45:29;98213.25;;;2.07;100.00
65276;BME280;51875;49.994;14.052;2023-04-26T02:46:44;98215.81;;;1.96;100.00
65276;BME280;51875;49.994;14.052;2023-04-26T02:48:00;98214.91;;;1.94;100.00
65276;BME280;51875;49.994;14.052;2023-04-26T02:49:16;98208.06;;;2.13;100.00
65276;BME280;51875;49.994;14.052;2023-04-26T02:50:31;98219.25;;;2.04;100.00
65276;BME280;51875;49.994;14.052;2023-04-26T02:51:46;98215.00;;;2.17;100.00
65276;BME280;51875;49.994;14.052;2023-04-26T02:53:02;98215.03;;;2.33;100.00
65276;BME280;51875;49.994;14.052;2023-04-26T02:54:18;98223.63;;;2.27;100.00
65276;BME280;51875;49.994;14.052;2023-04-26T02:55:36;98217.59;;;2.33;100.00
65276;BME280;51875;49.994;14.052;2023-04-26T02:56:52;98224.47;;;2.26;100.00
65276;BME280;51875;49.994;14.052;2023-04-26T02:58:09;98221.88;;;2.21;100.00
65276;BME280;51875;49.994;14.052;2023-04-26T02:59:24;98225.34;;;2.25;100.00
65276;BME280;51875;49.994;14.052;2023-04-26T03:00:45;98223.59;;;2.18;100.00
65276;BME280;51875;49.994;14.052;2023-04-26T03:02:01;98225.34;;;2.25;100.00
65276;BME280;51875;49.994;14.052;2023-04-26T03:03:16;98227.91;;;2.22;100.00
65276;BME280;51875;49.994;14.052;2023-04-26T03:04:32;98216.72;;;2.32;100.00
65276;BME280;51875;49.994;14.052;2023-04-26T03:05:48;98228.78;;;2.29;100.00
65276;BME280;51875;49.994;14.052;2023-04-26T03:07:04;98226.22;;;2.41;100.00
65276;BME280;51875;49.994;14.052;2023-04-26T03:08:19;98221.03;;;2.41;100.00
65276;BME280;51875;49.994;14.052;2023-04-26T03:09:35;98223.66;;;2.47;100.00
65276;BME280;51875;49.994;14.052;2023-04-26T03:10:54;98227.94;;;2.44;100.00
65276;BME280;51875;49.994;14.052;2023-04-26T03:12:10;98223.63;;;2.46;100.00
65276;BME280;51875;49.994;14.052;2023-04-26T03:13:26;98223.59;;;2.18;100.00
65276;BME280;51875;49.994;14.052;2023-04-26T03:14:41;98222.75;;;2.17;100.00
65276;BME280;51875;49.994;14.052;2023-04-26T03:15:57;98226.19;;;2.24;100.00
65276;BME280;51875;49.994;14.052;2023-04-26T03:17:12;98223.63;;;2.24;100.00
65276;BME280;51875;49.994;14.052;2023-04-26T03:18:28;98224.44;;;2.17;100.00
65276;BME280;51875;49.994;14.052;2023-04-26T03:19:43;98223.59;;;2.11;100.00
65276;BME280;51875;49.994;14.052;2023-04-26T03:20:59;98227.91;;;2.37;100.00
65276;BME280;51875;49.994;14.052;2023-04-26T03:22:15;98219.34;;;2.45;100.00
65276;BME280;51875;49.994;14.052;2023-04-26T03:23:32;98225.38;;;2.44;100.00
65276;BME280;51875;49.994;14.052;2023-04-26T03:24:48;98220.19;;;2.51;100.00
65276;BME280;51875;49.994;14.052;2023-04-26T03:26:04;98226.22;;;2.64;100.00
65276;BME280;51875;49.994;14.052;2023-04-26T03:27:19;98228.84;;;2.71;100.00
65276;BME280;51875;49.994;14.052;2023-04-26T03:28:36;98228.81;;;2.74;100.00
65276;BME280;51875;49.994;14.052;2023-04-26T03:29:52;98225.38;;;2.84;100.00
65276;BME280;51875;49.994;14.052;2023-04-26T03:31:07;98230.53;;;2.78;100.00
65276;BME280;51875;49.994;14.052;2023-04-26T03:32:23;98223.63;;;2.64;100.00
65276;BME280;51875;49.994;14.052;2023-04-26T03:33:39;98221.94;;;2.82;100.00
65276;BME280;51875;49.994;14.052;2023-04-26T03:34:55;98224.53;;;2.82;100.00
65276;BME280;51875;49.994;14.052;2023-04-26T03:36:10;98226.25;;;2.81;100.00
65276;BME280;51875;49.994;14.052;2023-04-26T03:37:25;98223.63;;;2.92;100.00
65276;BME280;51875;49.994;14.052;2023-04-26T03:38:41;98234.00;;;2.83;100.00
65276;BME280;51875;49.994;14.052;2023-04-26T03:39:57;98234.00;;;2.86;100.00
65276;BME280;51875;49.994;14.052;2023-04-26T03:41:12;98225.38;;;2.68;100.00
65276;BME280;51875;49.994;14.052;2023-04-26T03:42:28;98225.38;;;2.79;100.00
65276;BME280;51875;49.994;14.052;2023-04-26T03:43:44;98227.97;;;2.79;100.00
65276;BME280;51875;49.994;14.052;2023-04-26T03:44:59;98227.97;;;2.82;100.00
65276;BME280;51875;49.994;14.052;2023-04-26T03:46:15;98219.34;;;2.97;100.00
65276;BME280;51875;49.994;14.052;2023-04-26T03:47:30;98217.59;;;3.07;100.00
65276;BME280;51875;49.994;14.052;2023-04-26T03:48:46;98218.47;;;3.02;100.00
65276;BME280;51875;49.994;14.052;2023-04-26T03:50:02;98218.50;;;2.95;100.00
65276;BME280;51875;49.994;14.052;2023-04-26T03:51:17;98231.41;;;3.03;100.00
65276;BME280;51875;49.994;14.052;2023-04-26T03:52:33;98226.22;;;2.97;100.00
65276;BME280;51875;49.994;14.052;2023-04-26T03:53:48;98233.13;;;2.95;100.00
65276;BME280;51875;49.994;14.052;2023-04-26T03:55:05;98231.41;;;2.99;100.00
65276;BME280;51875;49.994;14.052;2023-04-26T03:56:23;98233.97;;;3.05;100.00
65276;BME280;51875;49.994;14.052;2023-04-26T03:57:39;98235.69;;;3.10;100.00
65276;BME280;51875;49.994;14.052;2023-04-26T03:58:55;98232.25;;;3.01;100.00
65276;BME280;51875;49.994;14.052;2023-04-26T04:00:12;98232.25;;;3.07;100.00
65276;BME280;51875;49.994;14.052;2023-04-26T04:01:28;98225.34;;;3.18;100.00
65276;BME280;51875;49.994;14.052;2023-04-26T04:02:45;98221.91;;;3.10;100.00
65276;BME280;51875;49.994;14.052;2023-04-26T04:04:00;98227.94;;;3.24;100.00
65276;BME280;51875;49.994;14.052;2023-04-26T04:05:17;98235.72;;;2.84;100.00
65276;BME280;51875;49.994;14.052;2023-04-26T04:06:32;98242.59;;;2.63;100.00
65276;BME280;51875;49.994;14.052;2023-04-26T04:07:48;98243.50;;;2.81;100.00
65276;BME280;51875;49.994;14.052;2023-04-26T04:09:04;98249.53;;;2.95;100.00
65276;BME280;51875;49.994;14.052;2023-04-26T04:10:22;98247.78;;;2.99;100.00
65276;BME280;51875;49.994;14.052;2023-04-26T04:11:37;98250.38;;;3.01;100.00
65276;BME280;51875;49.994;14.052;2023-04-26T04:12:53;98239.16;;;3.11;100.00
65276;BME280;51875;49.994;14.052;2023-04-26T04:14:09;98246.91;;;2.97;100.00
65276;BME280;51875;49.994;14.052;2023-04-26T04:15:24;98250.34;;;3.04;100.00
65276;BME280;51875;49.994;14.052;2023-04-26T04:16:41;98252.09;;;3.03;100.00
65276;BME280;51875;49.994;14.052;2023-04-26T04:17:56;98249.50;;;3.08;100.00
65276;BME280;51875;49.994;14.052;2023-04-26T04:19:12;98248.66;;;2.81;100.00
65276;BME280;51875;49.994;14.052;2023-04-26T04:20:28;98250.38;;;2.83;100.00
65276;BME280;51875;49.994;14.052;2023-04-26T04:21:43;98256.41;;;2.81;100.00
65276;BME280;51875;49.994;14.052;2023-04-26T04:22:59;98257.25;;;2.77;100.00
65276;BME280;51875;49.994;14.052;2023-04-26T04:24:18;98256.41;;;2.90;100.00
65276;BME280;51875;49.994;14.052;2023-04-26T04:25:34;98259.00;;;2.79;100.00
65276;BME280;51875;49.994;14.052;2023-04-26T04:26:49;98253.81;;;2.70;100.00
65276;BME280;51875;49.994;14.052;2023-04-26T04:28:05;98260.69;;;2.54;100.00
65276;BME280;51875;49.994;14.052;2023-04-26T04:29:21;98252.91;;;2.40;100.00
65276;BME280;51875;49.994;14.052;2023-04-26T04:30:37;98259.78;;;2.25;100.00
65276;BME280;51875;49.994;14.052;2023-04-26T04:31:52;98261.53;;;2.40;100.00
65276;BME280;51875;49.994;14.052;2023-04-26T04:33:08;98264.13;;;2.50;100.00
65276;BME280;51875;49.994;14.052;2023-04-26T04:34:23;98265.91;;;2.74;100.00
65276;BME280;51875;49.994;14.052;2023-04-26T04:35:40;98263.31;;;2.74;100.00
65276;BME280;51875;49.994;14.052;2023-04-26T04:36:56;98259.84;;;2.85;100.00
65276;BME280;51875;49.994;14.052;2023-04-26T04:38:12;98265.03;;;2.91;100.00
65276;BME280;51875;49.994;14.052;2023-04-26T04:39:28;98266.75;;;2.72;100.00
65276;BME280;51875;49.994;14.052;2023-04-26T04:40:46;98262.44;;;2.66;100.00
65276;BME280;51875;49.994;14.052;2023-04-26T04:42:02;98264.19;;;2.73;100.00
65276;BME280;51875;49.994;14.052;2023-04-26T04:43:18;98256.38;;;2.50;100.00
65276;BME280;51875;49.994;14.052;2023-04-26T04:44:34;98263.25;;;2.42;100.00
65276;BME280;51875;49.994;14.052;2023-04-26T04:45:51;98267.59;;;2.60;100.00
65276;BME280;51875;49.994;14.052;2023-04-26T04:47:07;98270.19;;;2.89;100.00
65276;BME280;51875;49.994;14.052;2023-04-26T04:48:22;98269.34;;;2.93;100.00
65276;BME280;51875;49.994;14.052;2023-04-26T04:49:38;98277.94;;;2.97;100.00
65276;BME280;51875;49.994;14.052;2023-04-26T04:50:54;98275.38;;;2.97;100.00
65276;BME280;51875;49.994;14.052;2023-04-26T04:52:09;98279.69;;;2.73;100.00
65276;BME280;51875;49.994;14.052;2023-04-26T04:53:25;98276.22;;;2.76;100.00
65276;BME280;51875;49.994;14.052;2023-04-26T04:54:41;98279.69;;;2.81;100.00
65276;BME280;51875;49.994;14.052;2023-04-26T04:55:58;98281.41;;;2.90;100.00
65276;BME280;51875;49.994;14.052;2023-04-26T04:57:14;98287.44;;;3.04;100.00
65276;BME280;51875;49.994;14.052;2023-04-26T04:58:32;98280.53;;;3.13;100.00
65276;BME280;51875;49.994;14.052;2023-04-26T04:59:47;98277.09;;;2.96;100.00
65276;BME280;51875;49.994;14.052;2023-04-26T05:01:03;98278.81;;;3.01;100.00
65276;BME280;51875;49.994;14.052;2023-04-26T05:02:19;98285.72;;;3.09;100.00
65276;BME280;51875;49.994;14.052;2023-04-26T05:03:34;98287.44;;;3.12;100.00
65276;BME280;51875;49.994;14.052;2023-04-26T05:04:50;98280.53;;;3.17;100.00
65276;BME280;51875;49.994;14.052;2023-04-26T05:06:06;98281.41;;;3.22;100.00
65276;BME280;51875;49.994;14.052;2023-04-26T05:07:22;98288.28;;;3.36;100.00
65276;BME280;51875;49.994;14.052;2023-04-26T05:08:37;98285.69;;;3.33;100.00
65276;BME280;51875;49.994;14.052;2023-04-26T05:09:53;98290.00;;;3.40;100.00
65276;BME280;51875;49.994;14.052;2023-04-26T05:11:11;98291.75;;;3.33;100.00
65276;BME280;51875;49.994;14.052;2023-04-26T05:12:27;98288.25;;;3.50;100.00
65276;BME280;51875;49.994;14.052;2023-04-26T05:13:42;98291.69;;;3.47;100.00
65276;BME280;51875;49.994;14.052;2023-04-26T05:14:58;98298.63;;;3.47;100.00
65276;BME280;51875;49.994;14.052;2023-04-26T05:16:13;98306.38;;;3.42;100.00
65276;BME280;51875;49.994;14.052;2023-04-26T05:17:29;98311.56;;;3.05;100.00
65276;BME280;51875;49.994;14.052;2023-04-26T05:18:46;98319.34;;;3.02;100.00
65276;BME280;51875;49.994;14.052;2023-04-26T05:20:02;98321.06;;;2.96;100.00
65276;BME280;51875;49.994;14.052;2023-04-26T05:21:21;98315.03;;;3.10;100.00
65276;BME280;51875;49.994;14.052;2023-04-26T05:22:37;98310.72;;;3.07;100.00
65276;BME280;51875;49.994;14.052;2023-04-26T05:23:54;98314.19;;;3.11;100.00
65276;BME280;51875;49.994;14.052;2023-04-26T05:25:09;98317.59;;;3.35;100.00
65276;BME280;51875;49.994;14.052;2023-04-26T05:26:25;98315.84;;;3.46;100.00
65276;BME280;51875;49.994;14.052;2023-04-26T05:27:41;98314.97;;;3.67;100.00
65276;BME280;51875;49.994;14.052;2023-04-26T05:28:56;98314.97;;;3.69;100.00
65276;BME280;51875;49.994;14.052;2023-04-26T05:30:12;98314.94;;;3.72;100.00
65276;BME280;51875;49.994;14.052;2023-04-26T05:31:28;98311.53;;;3.67;100.00
65276;BME280;51875;49.994;14.052;2023-04-26T05:32:43;98312.38;;;3.71;100.00
65276;BME280;51875;49.994;14.052;2023-04-26T05:34:00;98310.66;;;3.63;100.00
65276;BME280;51875;49.994;14.052;2023-04-26T05:35:15;98314.97;;;3.69;100.00
65276;BME280;51875;49.994;14.052;2023-04-26T05:36:31;98307.19;;;3.74;100.00
65276;BME280;51875;49.994;14.052;2023-04-26T05:37:47;98307.16;;;3.89;100.00
65276;BME280;51875;49.994;14.052;2023-04-26T05:39:02;98314.06;;;3.76;100.00
65276;BME280;51875;49.994;14.052;2023-04-26T05:40:20;98307.16;;;3.86;100.00
65276;BME280;51875;49.994;14.052;2023-04-26T05:41:35;98315.75;;;3.90;100.00
65276;BME280;51875;49.994;14.052;2023-04-26T05:42:51;98320.06;;;3.97;100.00
65276;BME280;51875;49.994;14.052;2023-04-26T05:44:06;98317.50;;;3.83;100.00
65276;BME280;51875;49.994;14.052;2023-04-26T05:45:22;98314.94;;;3.85;100.00
65276;BME280;51875;49.994;14.052;2023-04-26T05:46:38;98314.88;;;3.91;100.00
65276;BME280;51875;49.994;14.052;2023-04-26T05:47:54;98314.06;;;3.90;100.00
65276;BME280;51875;49.994;14.052;2023-04-26T05:49:10;98318.31;;;4.07;100.00
65276;BME280;51875;49.994;14.052;2023-04-26T05:50:26;98311.34;;;4.17;100.00
65276;BME280;51875;49.994;14.052;2023-04-26T05:51:41;98315.66;;;4.24;100.00
65276;BME280;51875;49.994;14.052;2023-04-26T05:52:57;98312.16;;;4.31;100.00
65276;BME280;51875;49.994;14.052;2023-04-26T05:54:13;98322.53;;;4.28;100.00
65276;BME280;51875;49.994;14.052;2023-04-26T05:55:28;98312.22;;;4.16;100.00
65276;BME280;51875;49.994;14.052;2023-04-26T05:56:44;98312.13;;;4.37;100.00
65276;BME280;51875;49.994;14.052;2023-04-26T05:58:00;98315.59;;;4.41;100.00
65276;BME280;51875;49.994;14.052;2023-04-26T05:59:15;98321.56;;;4.51;100.00
65276;BME280;51875;49.994;14.052;2023-04-26T06:00:32;98309.41;;;4.61;100.00
65276;BME280;51875;49.994;14.052;2023-04-26T06:01:48;98311.91;;;4.76;100.00
65276;BME280;51875;49.994;14.052;2023-04-26T06:03:04;98320.44;;;4.91;100.00
65276;BME280;51875;49.994;14.052;2023-04-26T06:04:19;98315.13;;;5.06;100.00
65276;BME280;51875;49.994;14.052;2023-04-26T06:05:36;98314.31;;;5.06;99.43
65276;BME280;51875;49.994;14.052;2023-04-26T06:06:54;98317.75;;;5.05;100.00
65276;BME280;51875;49.994;14.052;2023-04-26T06:08:16;98314.31;;;5.01;100.00
65276;BME280;51875;49.994;14.052;2023-04-26T06:09:32;98325.31;;;5.31;98.15
65276;BME280;51875;49.994;14.052;2023-04-26T06:10:48;98320.28;;;5.14;100.00
65276;BME280;51875;49.994;14.052;2023-04-26T06:12:04;98321.88;;;5.31;100.00
65276;BME280;51875;49.994;14.052;2023-04-26T06:13:20;98328.03;;;5.20;100.00
65276;BME280;51875;49.994;14.052;2023-04-26T06:14:35;98323.69;;;5.21;100.00
65276;BME280;51875;49.994;14.052;2023-04-26T06:15:52;98324.34;;;5.43;100.00
65276;BME280;51875;49.994;14.052;2023-04-26T06:17:07;98325.25;;;5.39;100.00
65276;BME280;51875;49.994;14.052;2023-04-26T06:18:23;98320.84;;;5.49;100.00
65276;BME280;51875;49.994;14.052;2023-04-26T06:19:39;98326.63;;;5.77;100.00
65276;BME280;51875;49.994;14.052;2023-04-26T06:20:55;98324.88;;;5.78;100.00
65276;BME280;51875;49.994;14.052;2023-04-26T06:22:10;98322.34;;;5.73;100.00
65276;BME280;51875;49.994;14.052;2023-04-26T06:23:26;98322.19;;;5.87;100.00
65276;BME280;51875;49.994;14.052;2023-04-26T06:24:41;98326.47;;;5.94;100.00
65276;BME280;51875;49.994;14.052;2023-04-26T06:25:57;98331.63;;;5.98;99.08
65276;BME280;51875;49.994;14.052;2023-04-26T06:27:13;98321.63;;;6.39;96.78
65276;BME280;51875;49.994;14.052;2023-04-26T06:28:28;98330.41;;;6.31;98.63
65276;BME280;51875;49.994;14.052;2023-04-26T06:29:43;98332.31;;;6.14;92.84
65276;BME280;51875;49.994;14.052;2023-04-26T06:30:59;98325.16;;;6.34;95.74
65276;BME280;51875;49.994;14.052;2023-04-26T06:32:15;98319.84;;;6.44;91.69
65276;BME280;51875;49.994;14.052;2023-04-26T06:33:31;98327.00;;;6.23;88.62
65276;BME280;51875;49.994;14.052;2023-04-26T06:34:47;98324.06;;;6.53;83.94
65276;BME280;51875;49.994;14.052;2023-04-26T06:36:02;98328.69;;;6.27;87.96
65276;BME280;51875;49.994;14.052;2023-04-26T06:37:18;98326.91;;;6.31;90.41